Time;durP1;ratioP1;P1;durP2;ratioP2;P2;SDS_P1;SDS_P2;PMS_P1;PMS_P2;Temp;Humidity;BMP_temperature;BMP_pressure;BME280_temperature;BME280_humidity;BME280_pressure;Samples;Min_cycle;Max_cycle;Signal;HPM_P1;HPM_P2
2022/06/30 00:01:24;;;;;;;3.95;2.78;;;22.40;99.90;;;;;;5089159;28;20035;-67
2022/06/30 00:03:49;;;;;;;4.55;2.47;;;22.30;99.90;;;;;;5091972;28;20031;-68
2022/06/30 00:06:15;;;;;;;3.65;2.55;;;22.20;99.90;;;;;;5087176;28;20039;-68
2022/06/30 00:08:40;;;;;;;3.95;3.05;;;22.10;99.90;;;;;;5093812;28;20040;-68
2022/06/30 00:11:09;;;;;;;3.88;2.72;;;22.00;99.90;;;;;;5090856;28;20031;-68
2022/06/30 00:13:37;;;;;;;3.72;3.00;;;21.90;99.90;;;;;;5089586;28;20047;-68
2022/06/30 00:16:03;;;;;;;2.95;2.70;;;21.90;99.90;;;;;;5094565;28;20042;-68
2022/06/30 00:18:29;;;;;;;2.83;2.63;;;21.80;99.90;;;;;;5094878;28;20138;-68
2022/06/30 00:20:55;;;;;;;4.03;2.75;;;21.80;99.90;;;;;;5091055;28;20472;-74
2022/06/30 00:23:21;;;;;;;5.65;3.67;;;21.80;99.90;;;;;;5089335;28;20118;-74
2022/06/30 00:25:46;;;;;;;4.90;2.75;;;21.80;99.90;;;;;;5095456;28;20050;-75
2022/06/30 00:28:12;;;;;;;6.80;2.92;;;21.80;99.90;;;;;;5090999;28;20085;-74
2022/06/30 00:30:38;;;;;;;3.50;2.95;;;21.80;99.90;;;;;;5094308;28;20038;-74
2022/06/30 00:33:03;;;;;;;3.92;3.08;;;21.80;99.90;;;;;;5089080;28;20138;-75
2022/06/30 00:35:29;;;;;;;6.18;3.10;;;21.80;99.90;;;;;;5094014;28;20028;-74
2022/06/30 00:37:55;;;;;;;5.22;3.17;;;21.80;99.90;;;;;;5092521;28;20030;-74
2022/06/30 00:40:21;;;;;;;4.07;3.25;;;21.70;99.90;;;;;;5093458;28;21238;-68
2022/06/30 00:42:47;;;;;;;5.28;3.13;;;21.70;99.90;;;;;;5086280;27;20035;-68
2022/06/30 00:45:12;;;;;;;3.22;2.70;;;21.60;99.90;;;;;;5094418;27;20078;-68
2022/06/30 00:47:39;;;;;;;3.85;2.80;;;21.50;99.90;;;;;;5094102;27;20073;-68
2022/06/30 00:50:05;;;;;;;10.52;2.85;;;21.40;99.90;;;;;;5095054;27;20026;-68
2022/06/30 00:52:35;;;;;;;6.55;3.35;;;21.40;99.90;;;;;;5092980;27;20115;-68
2022/06/30 00:55:03;;;;;;;15.02;2.95;;;21.40;99.90;;;;;;5090387;27;20126;-67
2022/06/30 00:57:30;;;;;;;8.18;2.80;;;21.40;99.90;;;;;;5099112;27;20030;-74
2022/06/30 00:59:57;;;;;;;15.00;3.25;;;21.50;99.90;;;;;;5095900;27;20394;-74
2022/06/30 01:02:24;;;;;;;5.57;2.97;;;21.50;99.90;;;;;;5092764;27;20027;-75
2022/06/30 01:04:53;;;;;;;4.05;2.83;;;21.50;99.90;;;;;;5092535;27;20042;-75
2022/06/30 01:07:20;;;;;;;4.03;2.95;;;21.50;99.90;;;;;;5087972;27;20040;-74
2022/06/30 01:12:43;;;;;;;4.63;3.03;;;21.40;99.90;;;;;;5094014;27;20104;-75
2022/06/30 01:15:13;;;;;;;11.68;3.53;;;21.40;99.90;;;;;;5090489;27;20032;-74
2022/06/30 01:17:39;;;;;;;3.00;2.80;;;21.40;99.90;;;;;;5096202;27;20436;-68
2022/06/30 01:20:06;;;;;;;17.80;2.83;;;21.40;99.90;;;;;;5092588;28;20039;-68
2022/06/30 01:22:31;;;;;;;3.92;2.90;;;21.40;99.90;;;;;;5099458;27;20032;-68
2022/06/30 01:24:57;;;;;;;4.97;2.92;;;21.30;99.90;;;;;;5094562;27;20036;-68
2022/06/30 01:27:23;;;;;;;4.10;2.78;;;21.40;99.90;;;;;;5096581;27;20508;-67
2022/06/30 01:29:50;;;;;;;2.97;2.78;;;21.40;99.90;;;;;;5095393;27;20163;-68
2022/06/30 01:32:16;;;;;;;3.05;2.78;;;21.30;99.90;;;;;;5089352;27;20659;-68
2022/06/30 01:34:42;;;;;;;4.43;2.78;;;21.30;99.90;;;;;;5096093;27;20023;-68
2022/06/30 01:37:08;;;;;;;5.70;3.15;;;21.30;99.90;;;;;;5094381;27;20019;-74
2022/06/30 01:39:33;;;;;;;4.13;3.40;;;21.30;99.90;;;;;;5076013;28;20134;-74
2022/06/30 01:41:59;;;;;;;4.30;2.55;;;21.20;99.90;;;;;;5096812;27;20023;-75
2022/06/30 01:44:25;;;;;;;3.35;3.05;;;21.10;99.90;;;;;;5094403;27;20380;-74
2022/06/30 01:46:51;;;;;;;5.50;3.30;;;21.00;99.90;;;;;;5088495;27;20128;-74
2022/06/30 01:49:17;;;;;;;6.97;3.13;;;21.00;99.90;;;;;;5091882;27;20041;-74
2022/06/30 01:51:43;;;;;;;4.13;3.08;;;21.10;99.90;;;;;;5093006;27;20031;-74
2022/06/30 01:54:09;;;;;;;7.72;3.00;;;21.10;99.90;;;;;;5083249;28;20042;-75
2022/06/30 01:56:36;;;;;;;4.70;2.58;;;21.10;99.90;;;;;;5096530;27;20036;-67
2022/06/30 01:59:02;;;;;;;4.45;2.95;;;21.10;99.90;;;;;;5096211;28;20034;-68
2022/06/30 02:01:28;;;;;;;4.38;3.10;;;21.20;99.90;;;;;;5087606;27;20032;-68
2022/06/30 02:03:53;;;;;;;6.32;3.00;;;21.20;99.90;;;;;;5088741;27;20039;-68
2022/06/30 02:06:19;;;;;;;3.17;2.85;;;21.10;99.90;;;;;;5088895;27;20048;-68
2022/06/30 02:08:44;;;;;;;5.30;2.67;;;21.10;99.90;;;;;;5088543;27;20499;-68
2022/06/30 02:11:10;;;;;;;4.65;3.00;;;20.90;99.90;;;;;;5084319;27;21682;-73
2022/06/30 02:13:36;;;;;;;4.50;3.15;;;20.80;99.90;;;;;;5092607;27;20391;-68
2022/06/30 02:16:02;;;;;;;5.25;3.13;;;20.80;99.90;;;;;;5094222;27;20504;-68
2022/06/30 02:18:27;;;;;;;3.90;3.05;;;20.80;99.90;;;;;;5098241;27;20459;-68
2022/06/30 02:20:53;;;;;;;3.28;2.97;;;20.90;99.90;;;;;;5093774;27;20034;-67
2022/06/30 02:23:19;;;;;;;3.35;3.05;;;20.90;99.90;;;;;;5076381;27;20126;-68
2022/06/30 02:25:44;;;;;;;4.13;3.03;;;20.90;99.90;;;;;;5098886;27;20746;-67
2022/06/30 02:28:10;;;;;;;4.20;2.92;;;20.90;99.90;;;;;;5097322;27;20030;-68
2022/06/30 02:30:36;;;;;;;3.67;3.38;;;20.90;99.90;;;;;;5087624;27;20047;-67
2022/06/30 02:33:02;;;;;;;5.63;2.95;;;20.90;99.90;;;;;;5094221;27;20028;-78
2022/06/30 02:35:28;;;;;;;5.03;3.28;;;20.90;99.90;;;;;;5089206;28;20028;-74
2022/06/30 02:37:53;;;;;;;3.90;3.00;;;21.00;99.90;;;;;;5096142;27;20032;-74
2022/06/30 02:40:19;;;;;;;3.25;3.05;;;20.90;99.90;;;;;;5082472;27;20023;-74
2022/06/30 02:42:46;;;;;;;5.00;2.80;;;21.00;99.90;;;;;;5100698;27;20507;-74
2022/06/30 02:45:11;;;;;;;9.57;3.45;;;20.80;99.90;;;;;;5089662;27;21049;-74
2022/06/30 02:47:39;;;;;;;6.63;3.17;;;20.60;99.90;;;;;;5092888;27;20063;-74
2022/06/30 02:50:07;;;;;;;5.00;3.13;;;20.50;99.90;;;;;;5080783;27;22375;-74
2022/06/30 02:52:34;;;;;;;4.68;3.30;;;20.50;99.90;;;;;;5097405;27;20679;-67
2022/06/30 02:55:01;;;;;;;5.53;3.40;;;20.40;99.90;;;;;;5091898;27;20023;-67
2022/06/30 02:57:27;;;;;;;5.70;3.65;;;20.40;99.90;;;;;;5090415;27;20035;-67
2022/06/30 02:59:53;;;;;;;3.35;3.08;;;20.30;99.90;;;;;;5099490;27;20475;-67
2022/06/30 03:02:19;;;;;;;7.95;3.22;;;20.30;99.90;;;;;;5088199;27;20028;-67
2022/06/30 03:04:44;;;;;;;4.45;3.25;;;20.30;99.90;;;;;;5092927;27;21751;-67
2022/06/30 03:07:10;;;;;;;4.88;3.45;;;20.30;99.90;;;;;;5088345;27;20433;-67
2022/06/30 03:09:36;;;;;;;3.70;3.10;;;20.30;99.90;;;;;;5095220;27;20477;-73
2022/06/30 03:12:02;;;;;;;7.70;3.47;;;20.30;99.90;;;;;;5087344;27;20039;-67
2022/06/30 03:14:28;;;;;;;3.30;3.10;;;20.30;99.90;;;;;;5095771;27;20015;-67
2022/06/30 03:16:54;;;;;;;5.70;3.00;;;20.30;99.90;;;;;;5083212;28;20565;-67
2022/06/30 03:19:20;;;;;;;3.35;2.80;;;20.30;99.90;;;;;;5088729;27;20205;-67
2022/06/30 03:21:46;;;;;;;5.68;3.20;;;20.20;99.90;;;;;;5093449;27;20579;-68
2022/06/30 03:24:11;;;;;;;5.15;3.00;;;20.20;99.90;;;;;;5077522;28;20027;-67
2022/06/30 03:26:37;;;;;;;6.93;3.28;;;20.10;99.90;;;;;;5092577;28;20043;-67
2022/06/30 03:29:04;;;;;;;7.97;3.33;;;20.20;99.90;;;;;;5089786;28;20076;-73
2022/06/30 03:31:29;;;;;;;7.05;3.33;;;20.20;99.90;;;;;;5093465;28;20054;-67
2022/06/30 03:33:55;;;;;;;3.78;3.20;;;20.20;99.90;;;;;;5093166;27;20464;-67
2022/06/30 03:36:21;;;;;;;4.22;3.40;;;20.20;99.90;;;;;;5080947;28;20109;-67
2022/06/30 03:38:46;;;;;;;3.45;3.15;;;20.10;99.90;;;;;;5093672;28;20040;-67
2022/06/30 03:41:12;;;;;;;3.47;2.92;;;20.20;99.90;;;;;;5094943;28;20322;-67
2022/06/30 03:43:38;;;;;;;4.25;3.30;;;20.20;99.90;;;;;;5086369;28;20365;-67
2022/06/30 03:46:04;;;;;;;3.53;3.08;;;20.20;99.90;;;;;;5089691;28;20161;-67
2022/06/30 03:48:29;;;;;;;8.70;3.90;;;20.30;99.90;;;;;;5090482;28;20046;-74
2022/06/30 03:50:55;;;;;;;7.82;4.22;;;20.30;99.90;;;;;;5097764;28;20464;-74
2022/06/30 03:53:21;;;;;;;8.63;3.70;;;20.30;99.90;;;;;;5089771;28;20212;-73
2022/06/30 03:55:46;;;;;;;6.35;3.35;;;20.30;99.90;;;;;;5096239;28;20040;-74
2022/06/30 03:58:12;;;;;;;5.50;3.20;;;20.20;99.90;;;;;;5092567;28;20110;-75
2022/06/30 04:00:38;;;;;;;8.30;3.38;;;20.20;99.90;;;;;;5090358;28;20385;-74
2022/06/30 04:03:04;;;;;;;4.40;3.28;;;20.20;99.90;;;;;;5080201;28;20028;-74
2022/06/30 04:05:30;;;;;;;6.63;2.90;;;20.30;99.90;;;;;;5096146;28;20032;-74
2022/06/30 04:07:56;;;;;;;8.55;3.83;;;20.30;99.90;;;;;;5096798;28;20036;-67
2022/06/30 04:10:22;;;;;;;6.43;3.60;;;20.40;99.90;;;;;;5094147;28;20023;-74
2022/06/30 04:12:47;;;;;;;6.40;3.60;;;20.60;99.90;;;;;;5088808;28;20044;-74
2022/06/30 04:15:13;;;;;;;6.43;3.38;;;20.70;99.90;;;;;;5088644;28;20464;-74
2022/06/30 04:17:39;;;;;;;10.20;3.60;;;20.80;99.90;;;;;;5090063;28;20390;-74
2022/06/30 04:20:15;;;;;;;4.13;2.78;;;20.90;99.90;;;;;;5092596;27;20133;-76
2022/06/30 04:22:42;;;;;;;5.07;3.40;;;21.00;99.90;;;;;;5094959;27;20313;-75
2022/06/30 04:25:08;;;;;;;4.82;3.28;;;21.00;99.90;;;;;;5094986;27;20475;-76
2022/06/30 04:27:34;;;;;;;4.88;3.15;;;21.00;99.90;;;;;;5091455;27;20047;-68
2022/06/30 04:30:00;;;;;;;6.30;3.05;;;21.00;99.90;;;;;;5101740;27;20030;-69
2022/06/30 04:32:37;;;;;;;7.50;3.50;;;21.00;99.90;;;;;;5102044;27;20031;-68
2022/06/30 04:35:04;;;;;;;9.50;3.90;;;21.00;99.90;;;;;;5095001;27;21251;-68
2022/06/30 04:37:29;;;;;;;5.90;3.00;;;21.20;99.90;;;;;;5095779;27;20348;-67
2022/06/30 04:42:39;;;;;;;12.43;3.65;;;21.50;99.90;;;;;;5085167;27;20161;-67
2022/06/30 04:45:06;;;;;;;11.57;3.58;;;21.70;99.90;;;;;;5091566;27;20119;-67
2022/06/30 04:47:35;;;;;;;13.88;3.47;;;21.70;99.90;;;;;;5096046;27;20112;-76
2022/06/30 04:50:01;;;;;;;16.20;4.70;;;21.90;99.90;;;;;;5097314;27;20027;-77
2022/06/30 04:52:26;;;;;;;7.97;3.22;;;22.00;99.90;;;;;;5094316;27;20166;-77
2022/06/30 04:54:52;;;;;;;14.00;3.30;;;22.10;99.90;;;;;;5095353;27;20107;-76
2022/06/30 04:57:17;;;;;;;6.50;3.03;;;22.20;99.90;;;;;;5072499;28;21282;-76
2022/06/30 04:59:43;;;;;;;4.50;3.15;;;22.40;99.90;;;;;;5083749;27;20471;-77
2022/06/30 05:02:09;;;;;;;7.07;3.10;;;22.50;99.90;;;;;;5097946;27;20027;-77
2022/06/30 05:04:34;;;;;;;8.98;3.03;;;22.50;99.90;;;;;;5094287;27;20396;-77
2022/06/30 05:07:00;;;;;;;6.63;3.47;;;22.60;99.90;;;;;;5095965;27;20513;-68
2022/06/30 05:09:26;;;;;;;4.00;2.88;;;22.70;99.90;;;;;;5091057;27;20551;-69
2022/06/30 05:11:51;;;;;;;16.77;3.55;;;22.80;99.90;;;;;;5096941;27;20034;-67
2022/06/30 05:14:17;;;;;;;9.73;3.20;;;22.90;99.90;;;;;;5094445;27;20026;-67
2022/06/30 05:16:42;;;;;;;9.90;3.30;;;23.10;99.90;;;;;;5097049;27;20042;-67
2022/06/30 05:19:08;;;;;;;4.53;2.95;;;23.20;99.90;;;;;;5091173;27;20031;-67
2022/06/30 05:21:34;;;;;;;8.60;2.97;;;23.30;99.90;;;;;;5092508;27;20035;-67
2022/06/30 05:26:44;;;;;;;13.60;3.10;;;23.50;99.90;;;;;;5095974;27;20525;-76
2022/06/30 05:29:09;;;;;;;5.30;3.03;;;23.60;99.90;;;;;;5098413;27;20102;-76
2022/06/30 05:31:35;;;;;;;21.73;3.53;;;23.70;99.90;;;;;;5093879;28;20032;-77
2022/06/30 05:34:01;;;;;;;5.88;3.03;;;23.80;99.90;;;;;;5092968;27;20033;-77
2022/06/30 05:36:27;;;;;;;9.25;3.42;;;23.90;99.90;;;;;;5092681;27;20024;-76
2022/06/30 05:38:52;;;;;;;6.13;2.92;;;24.00;99.90;;;;;;5097315;27;20562;-76
2022/06/30 05:41:18;;;;;;;9.35;3.13;;;24.10;99.90;;;;;;5090547;27;20120;-77
2022/06/30 05:43:44;;;;;;;10.10;3.00;;;24.10;99.00;;;;;;5096323;28;20028;-67
2022/06/30 05:46:10;;;;;;;3.35;2.70;;;24.20;99.50;;;;;;5095674;27;20605;-68
2022/06/30 05:48:35;;;;;;;6.20;2.90;;;24.40;99.90;;;;;;5100692;27;20023;-67
2022/06/30 05:51:01;;;;;;;8.00;3.30;;;24.40;99.90;;;;;;5093378;27;20020;-67
2022/06/30 05:53:27;;;;;;;6.82;2.72;;;24.50;99.90;;;;;;5074492;28;20601;-68
2022/06/30 05:55:52;;;;;;;10.88;4.15;;;24.70;99.90;;;;;;5080655;27;20027;-64
2022/06/30 05:58:18;;;;;;;7.43;2.95;;;24.80;99.90;;;;;;5090045;27;20107;-64
2022/06/30 06:00:44;;;;;;;3.00;2.70;;;25.00;99.70;;;;;;5091601;27;20052;-68
2022/06/30 06:03:10;;;;;;;8.07;3.10;;;25.10;99.70;;;;;;5094369;28;20043;-64
2022/06/30 06:05:35;;;;;;;3.30;3.00;;;25.30;99.30;;;;;;5094608;27;20211;-64
2022/06/30 06:08:09;;;;;;;7.75;3.28;;;25.40;99.00;;;;;;5096145;27;20028;-64
2022/06/30 06:10:35;;;;;;;9.20;3.63;;;25.50;99.20;;;;;;5092004;27;20024;-64
2022/06/30 06:13:02;;;;;;;6.72;3.22;;;25.60;99.90;;;;;;5091771;27;20027;-64
2022/06/30 06:15:28;;;;;;;3.17;2.85;;;25.70;99.40;;;;;;5093374;27;20038;-64
2022/06/30 06:17:54;;;;;;;12.23;3.58;;;25.90;99.10;;;;;;5096564;27;20025;-64
2022/06/30 06:20:19;;;;;;;58.58;4.50;;;26.00;98.90;;;;;;5095128;27;20043;-71
2022/06/30 06:22:45;;;;;;;14.07;3.35;;;26.10;99.70;;;;;;5095481;27;20046;-64
2022/06/30 06:25:12;;;;;;;4.90;2.88;;;26.10;99.00;;;;;;5086708;27;20032;-63
2022/06/30 06:27:38;;;;;;;3.35;3.10;;;26.30;97.40;;;;;;5094348;27;20039;-64
2022/06/30 06:30:06;;;;;;;6.50;2.60;;;26.40;97.70;;;;;;5097153;27;20058;-64
2022/06/30 06:32:32;;;;;;;9.13;2.63;;;26.40;97.10;;;;;;5093431;28;20032;-64
2022/06/30 06:34:58;;;;;;;5.68;2.88;;;26.50;97.10;;;;;;5076856;27;20735;-64
2022/06/30 06:37:25;;;;;;;5.13;2.70;;;26.60;97.60;;;;;;5091628;27;20020;-64
2022/06/30 06:39:51;;;;;;;4.10;2.95;;;26.70;97.80;;;;;;5095023;27;20038;-64
2022/06/30 06:42:17;;;;;;;5.90;2.60;;;26.70;96.70;;;;;;5093767;27;20036;-74
2022/06/30 06:44:43;;;;;;;5.55;2.50;;;26.80;97.00;;;;;;5096345;27;20046;-74
2022/06/30 06:47:08;;;;;;;11.00;2.83;;;26.90;96.20;;;;;;5090103;27;20048;-79
2022/06/30 06:49:34;;;;;;;4.00;2.70;;;27.00;96.30;;;;;;5081715;27;20050;-77
2022/06/30 06:52:00;;;;;;;6.13;2.67;;;27.10;95.50;;;;;;5097369;27;20110;-78
2022/06/30 06:54:25;;;;;;;7.25;2.50;;;27.20;95.50;;;;;;5098070;27;20031;-77
2022/06/30 06:56:51;;;;;;;3.53;2.20;;;27.40;93.50;;;;;;5101697;27;20032;-77
2022/06/30 06:59:17;;;;;;;7.57;2.75;;;27.50;91.00;;;;;;5094845;27;20114;-79
2022/06/30 07:01:43;;;;;;;6.32;3.05;;;27.60;91.20;;;;;;5097964;27;20027;-65
2022/06/30 07:04:09;;;;;;;6.40;2.10;;;27.70;91.00;;;;;;5070462;27;20396;-64
2022/06/30 07:06:35;;;;;;;4.85;2.88;;;27.80;89.10;;;;;;5087182;27;20039;-64
2022/06/30 07:09:02;;;;;;;5.15;2.20;;;27.90;84.50;;;;;;5078005;28;20080;-64
2022/06/30 07:11:28;;;;;;;16.75;2.25;;;28.00;83.40;;;;;;5083537;27;20035;-64
2022/06/30 07:13:53;;;;;;;3.72;2.08;;;28.00;79.90;;;;;;5098956;27;20282;-63
2022/06/30 07:16:19;;;;;;;5.07;2.60;;;28.10;75.40;;;;;;5085522;28;20396;-62
2022/06/30 07:18:44;;;;;;;2.30;1.85;;;28.10;75.40;;;;;;5091855;27;20076;-80
2022/06/30 07:21:10;;;;;;;4.13;2.08;;;28.20;77.40;;;;;;5084861;28;20036;-63
2022/06/30 07:23:36;;;;;;;3.53;1.92;;;28.30;73.20;;;;;;5094166;27;20150;-64
2022/06/30 07:26:02;;;;;;;4.35;1.80;;;28.40;74.90;;;;;;5096238;27;20626;-64
2022/06/30 07:28:27;;;;;;;8.15;1.83;;;28.40;70.90;;;;;;5095770;27;20039;-64
2022/06/30 07:30:53;;;;;;;4.07;2.13;;;28.50;73.20;;;;;;5091857;28;20102;-63
2022/06/30 07:33:19;;;;;;;3.50;1.90;;;28.60;70.70;;;;;;5097968;27;20023;-66
2022/06/30 07:35:45;;;;;;;1.90;1.80;;;28.70;67.00;;;;;;5090052;28;20080;-70
2022/06/30 07:38:11;;;;;;;3.30;2.17;;;28.80;66.60;;;;;;5094370;27;20035;-66
2022/06/30 07:40:37;;;;;;;2.80;1.98;;;28.90;67.20;;;;;;5093320;28;20027;-65
2022/06/30 07:43:02;;;;;;;6.82;1.70;;;29.00;65.70;;;;;;5095019;28;20157;-71
2022/06/30 07:45:28;;;;;;;6.90;2.50;;;29.00;66.90;;;;;;5102347;28;20028;-68
2022/06/30 07:47:54;;;;;;;2.03;1.80;;;29.20;67.40;;;;;;5092049;28;20025;-63
2022/06/30 07:50:21;;;;;;;5.30;1.90;;;29.30;64.00;;;;;;5094565;28;20080;-63
2022/06/30 07:52:47;;;;;;;4.75;2.15;;;29.30;65.30;;;;;;5092831;27;20031;-63
2022/06/30 07:55:14;;;;;;;2.20;1.90;;;29.40;66.50;;;;;;5093416;27;20495;-72
2022/06/30 07:57:45;;;;;;;4.38;2.00;;;29.50;64.90;;;;;;5099351;27;20069;-64
2022/06/30 08:00:12;;;;;;;3.47;1.92;;;29.50;64.90;;;;;;5095816;27;20034;-64
2022/06/30 08:02:38;;;;;;;3.65;2.20;;;29.50;64.50;;;;;;5095387;27;20035;-63
2022/06/30 08:05:05;;;;;;;2.42;1.90;;;29.60;64.30;;;;;;5098547;27;20289;-63
2022/06/30 08:07:31;;;;;;;4.55;1.92;;;29.60;64.20;;;;;;5100792;27;20732;-64
2022/06/30 08:09:57;;;;;;;11.77;2.78;;;29.70;61.40;;;;;;5093413;27;20107;-66
2022/06/30 08:12:22;;;;;;;7.00;2.20;;;29.80;59.90;;;;;;5094415;27;20024;-66
2022/06/30 08:14:48;;;;;;;4.25;2.00;;;30.20;59.90;;;;;;5094237;28;20030;-66
2022/06/30 08:17:14;;;;;;;2.10;1.90;;;30.50;58.30;;;;;;5095529;28;20677;-65
2022/06/30 08:19:41;;;;;;;9.52;2.00;;;30.70;58.40;;;;;;5098967;27;20484;-65
2022/06/30 08:22:07;;;;;;;18.83;2.72;;;30.80;57.30;;;;;;5101412;27;20088;-64
2022/06/30 08:24:33;;;;;;;3.60;2.08;;;30.90;55.80;;;;;;5096528;27;20027;-64
2022/06/30 08:27:02;;;;;;;6.10;2.47;;;30.90;56.40;;;;;;5096724;27;20415;-70
2022/06/30 08:29:28;;;;;;;3.45;1.95;;;31.10;56.80;;;;;;5095216;27;21850;-70
2022/06/30 08:31:54;;;;;;;3.55;1.98;;;31.10;55.70;;;;;;5104380;27;20522;-71
2022/06/30 08:34:20;;;;;;;5.65;1.70;;;31.10;56.10;;;;;;5090786;27;20126;-67
2022/06/30 08:36:45;;;;;;;3.78;2.08;;;31.30;55.00;;;;;;5089221;27;20612;-66
2022/06/30 08:42:02;;;;;;;3.45;1.90;;;31.30;55.10;;;;;;5090202;28;20561;-69
2022/06/30 08:42:03;;;;;;;5.03;1.80;;;31.30;53.90;;;;;;5099066;27;20039;-69
2022/06/30 08:44:36;;;;;;;4.15;2.17;;;31.40;54.20;;;;;;5095076;27;20564;-69
2022/06/30 08:47:04;;;;;;;8.57;2.10;;;31.50;52.60;;;;;;5084294;27;20052;-67
2022/06/30 08:49:31;;;;;;;1.88;1.77;;;31.40;53.70;;;;;;5100328;27;20103;-66
2022/06/30 08:51:58;;;;;;;4.90;2.42;;;31.40;52.60;;;;;;5099412;27;20031;-64
2022/06/30 08:54:28;;;;;;;3.33;2.28;;;31.40;53.30;;;;;;5089544;27;20024;-66
2022/06/30 08:56:56;;;;;;;5.00;1.92;;;31.60;53.90;;;;;;5076918;27;20573;-67
2022/06/30 08:59:24;;;;;;;4.32;2.45;;;31.70;53.80;;;;;;5097257;27;20224;-66
2022/06/30 09:01:50;;;;;;;6.07;2.15;;;31.80;54.10;;;;;;5087716;27;20069;-68
2022/06/30 09:04:16;;;;;;;3.63;2.17;;;31.90;54.10;;;;;;5091952;27;20115;-63
2022/06/30 09:06:45;;;;;;;5.65;2.50;;;32.00;53.20;;;;;;5096986;27;20099;-64
2022/06/30 09:09:12;;;;;;;5.10;2.42;;;32.10;53.10;;;;;;5087164;27;20035;-67
2022/06/30 09:11:57;;;;;;;5.22;1.92;;;32.20;51.40;;;;;;5097325;27;20038;-66
2022/06/30 09:14:40;;;;;;;4.57;2.25;;;32.20;51.20;;;;;;5091111;27;20024;-64
2022/06/30 09:17:13;;;;;;;2.88;1.88;;;32.10;50.50;;;;;;5088937;27;20035;-64
2022/06/30 09:20:10;;;;;;;3.00;1.90;;;32.10;52.70;;;;;;5081940;27;20031;-64
2022/06/30 09:22:37;;;;;;;4.72;1.45;;;32.30;51.30;;;;;;5092287;27;20047;-64
2022/06/30 09:25:07;;;;;;;2.17;1.95;;;32.30;50.70;;;;;;5087421;27;20494;-64
2022/06/30 09:27:39;;;;;;;2.13;1.70;;;32.30;48.60;;;;;;5096960;27;20061;-64
2022/06/30 09:30:07;;;;;;;5.30;1.73;;;32.30;48.60;;;;;;5090290;27;20028;-65
2022/06/30 09:32:54;;;;;;;5.05;1.80;;;32.40;48.70;;;;;;5093883;27;20189;-68
2022/06/30 09:35:22;;;;;;;3.10;1.98;;;32.40;47.30;;;;;;5083349;27;20012;-68
2022/06/30 09:38:08;;;;;;;7.32;1.67;;;32.40;49.20;;;;;;5089260;27;20032;-70
2022/06/30 09:40:36;;;;;;;2.38;2.17;;;32.40;47.10;;;;;;5086337;27;20115;-69
2022/06/30 09:43:04;;;;;;;4.22;2.03;;;32.40;48.00;;;;;;5085810;27;20030;-67
2022/06/30 09:45:33;;;;;;;3.67;1.90;;;32.40;48.50;;;;;;5088469;27;20176;-69
2022/06/30 09:47:59;;;;;;;3.60;1.73;;;32.30;47.70;;;;;;5093087;27;20046;-69
2022/06/30 09:50:25;;;;;;;4.40;2.00;;;32.40;48.80;;;;;;5096054;27;20028;-68
2022/06/30 09:53:14;;;;;;;2.85;1.90;;;32.40;47.70;;;;;;5083121;27;20028;-65
2022/06/30 09:55:46;;;;;;;2.13;1.90;;;32.50;49.30;;;;;;5097285;27;20073;-65
2022/06/30 09:58:14;;;;;;;1.90;1.65;;;32.60;48.40;;;;;;5091113;27;20031;-64
2022/06/30 10:00:50;;;;;;;2.65;1.60;;;32.60;49.00;;;;;;5073720;28;20945;-63
2022/06/30 10:03:17;;;;;;;2.38;1.70;;;32.70;47.30;;;;;;5098668;27;20032;-64
2022/06/30 10:05:45;;;;;;;3.63;1.70;;;32.80;47.10;;;;;;5095341;27;20016;-64
2022/06/30 10:08:12;;;;;;;3.72;1.60;;;32.80;47.60;;;;;;5083797;28;20084;-65
2022/06/30 10:10:41;;;;;;;5.22;1.80;;;32.90;47.60;;;;;;5088022;28;20107;-70
2022/06/30 10:13:11;;;;;;;3.05;1.83;;;32.90;46.10;;;;;;5087372;28;20039;-68
2022/06/30 10:15:39;;;;;;;5.30;1.70;;;32.80;46.60;;;;;;5088991;28;20491;-67
2022/06/30 10:18:07;;;;;;;4.70;1.60;;;32.80;46.40;;;;;;5096781;27;20028;-67
2022/06/30 10:20:38;;;;;;;2.47;1.67;;;32.80;46.80;;;;;;5090259;27;20021;-66
2022/06/30 10:23:05;;;;;;;2.60;1.45;;;32.90;47.20;;;;;;5094311;27;20111;-66
2022/06/30 10:25:32;;;;;;;2.92;1.75;;;33.10;47.10;;;;;;5091436;27;20157;-66
2022/06/30 10:27:59;;;;;;;3.13;1.65;;;33.20;46.60;;;;;;5094886;27;20602;-65
2022/06/30 10:30:29;;;;;;;2.40;1.38;;;33.20;44.00;;;;;;5093324;27;20391;-63
2022/06/30 10:33:22;;;;;;;2.23;1.20;;;33.10;43.60;;;;;;5089718;28;20028;-63
2022/06/30 10:36:00;;;;;;;3.65;1.65;;;33.10;43.60;;;;;;5091739;28;22534;-63
2022/06/30 10:38:54;;;;;;;2.53;1.50;;;33.10;46.40;;;;;;5062502;28;20062;-64
2022/06/30 10:41:22;;;;;;;3.10;1.80;;;33.30;44.20;;;;;;5073482;28;20027;-64
2022/06/30 10:44:03;;;;;;;2.58;1.40;;;33.30;43.80;;;;;;5090586;28;20038;-64
2022/06/30 10:46:56;;;;;;;1.63;1.50;;;33.30;43.70;;;;;;5091222;27;20051;-64
2022/06/30 10:49:26;;;;;;;5.13;1.67;;;33.30;45.20;;;;;;5081896;27;20528;-67
2022/06/30 10:51:56;;;;;;;1.60;1.50;;;33.30;43.30;;;;;;5094007;27;20032;-69
2022/06/30 10:54:31;;;;;;;2.60;1.25;;;33.30;43.60;;;;;;5096499;27;20031;-67
2022/06/30 10:56:59;;;;;;;1.75;1.38;;;33.30;44.80;;;;;;5079380;28;20040;-69
2022/06/30 10:59:41;;;;;;;1.88;1.50;;;33.30;42.20;;;;;;5080188;27;20031;-67
2022/06/30 11:02:20;;;;;;;14.95;2.15;;;33.40;44.30;;;;;;5094785;28;20027;-70
2022/06/30 11:04:50;;;;;;;6.68;1.88;;;33.40;40.50;;;;;;5098286;27;20119;-69
2022/06/30 11:07:24;;;;;;;2.58;1.50;;;33.30;42.30;;;;;;5092458;27;20505;-67
2022/06/30 11:09:55;;;;;;;2.33;1.70;;;33.30;41.90;;;;;;5089319;27;20027;-68
2022/06/30 11:12:38;;;;;;;4.50;1.30;;;33.40;42.20;;;;;;5090524;27;20031;-69
2022/06/30 11:15:04;;;;;;;3.38;1.65;;;33.40;41.20;;;;;;5081500;27;20028;-68
2022/06/30 11:17:35;;;;;;;2.38;1.30;;;33.40;41.50;;;;;;5090569;27;20059;-67
2022/06/30 11:20:02;;;;;;;2.28;1.67;;;33.40;41.00;;;;;;5094878;27;20039;-68
2022/06/30 11:22:29;;;;;;;2.42;1.48;;;33.40;41.90;;;;;;5081267;28;20047;-68
2022/06/30 11:25:04;;;;;;;2.97;1.65;;;33.50;42.30;;;;;;5096015;27;20079;-68
2022/06/30 11:27:32;;;;;;;2.25;1.38;;;33.50;42.00;;;;;;5075699;28;20035;-64
2022/06/30 11:30:03;;;;;;;8.27;1.92;;;33.60;40.60;;;;;;5088364;27;20042;-64
2022/06/30 11:32:29;;;;;;;4.13;1.65;;;33.60;39.60;;;;;;5094624;27;20035;-64
2022/06/30 11:34:59;;;;;;;1.45;1.33;;;33.60;39.20;;;;;;5094402;28;20072;-63
2022/06/30 11:37:33;;;;;;;2.60;1.20;;;33.60;39.00;;;;;;5088387;28;20028;-65
2022/06/30 11:40:02;;;;;;;6.07;1.40;;;33.60;39.10;;;;;;5088366;28;20097;-64
2022/06/30 11:42:27;;;;;;;5.15;1.58;;;33.60;39.40;;;;;;5090415;28;20472;-63
2022/06/30 11:44:53;;;;;;;2.55;1.40;;;33.60;39.70;;;;;;5092577;28;20039;-69
2022/06/30 11:47:22;;;;;;;1.40;1.30;;;33.60;40.60;;;;;;5089637;28;20395;-67
2022/06/30 11:49:52;;;;;;;4.10;1.45;;;33.60;40.40;;;;;;5087743;28;20058;-66
2022/06/30 11:52:31;;;;;;;1.40;1.30;;;33.80;38.20;;;;;;5089647;28;20252;-66
2022/06/30 11:55:09;;;;;;;2.28;1.20;;;33.80;39.30;;;;;;5091350;28;20127;-68
2022/06/30 11:57:40;;;;;;;1.65;1.38;;;33.80;38.70;;;;;;5074410;28;20495;-68
2022/06/30 12:00:17;;;;;;;6.90;1.77;;;33.90;38.10;;;;;;5066616;28;20097;-70
2022/06/30 12:02:44;;;;;;;1.98;1.27;;;33.90;39.10;;;;;;5089388;28;20115;-68
2022/06/30 12:05:14;;;;;;;3.05;1.30;;;33.90;38.00;;;;;;5089453;28;20051;-63
2022/06/30 12:07:41;;;;;;;3.85;1.40;;;33.90;40.20;;;;;;5098505;28;20044;-64
2022/06/30 12:10:09;;;;;;;2.22;1.65;;;33.90;39.00;;;;;;5087061;28;20048;-64
2022/06/30 12:12:36;;;;;;;3.65;1.60;;;34.00;39.70;;;;;;5073319;28;20565;-65
2022/06/30 12:15:12;;;;;;;3.45;1.30;;;34.00;38.40;;;;;;5093520;28;20040;-65
2022/06/30 12:17:41;;;;;;;3.35;1.30;;;34.00;38.90;;;;;;5089393;28;20115;-64
2022/06/30 12:20:09;;;;;;;2.60;1.30;;;34.00;39.00;;;;;;5084958;28;20115;-65
2022/06/30 12:22:39;;;;;;;4.65;1.45;;;34.00;37.60;;;;;;5095509;28;20050;-64
2022/06/30 12:25:05;;;;;;;3.80;1.60;;;34.00;36.70;;;;;;5091150;28;20051;-67
2022/06/30 12:27:40;;;;;;;1.90;1.48;;;34.00;37.80;;;;;;5094796;28;20118;-67
2022/06/30 12:30:09;;;;;;;2.95;1.33;;;34.00;36.70;;;;;;5096033;28;20633;-68
2022/06/30 12:32:34;;;;;;;9.23;1.65;;;34.00;37.60;;;;;;5090773;28;20050;-67
2022/06/30 12:35:03;;;;;;;1.40;1.30;;;34.10;36.20;;;;;;5089225;28;20061;-68
2022/06/30 12:37:43;;;;;;;4.30;1.27;;;34.00;36.50;;;;;;5060480;28;20172;-68
2022/06/30 12:40:15;;;;;;;1.80;1.40;;;34.20;36.50;;;;;;5087105;28;20032;-68
2022/06/30 12:42:57;;;;;;;1.80;1.38;;;34.20;36.10;;;;;;5088499;27;20024;-67
2022/06/30 12:45:41;;;;;;;;;;;34.20;35.90;;;;;;5073409;27;20455;-64
2022/06/30 12:48:07;;;;;;;1.55;1.45;;;34.20;37.80;;;;;;5090609;27;20363;-64
2022/06/30 12:50:34;;;;;;;7.93;1.33;;;34.20;37.80;;;;;;5089725;28;20028;-65
2022/06/30 12:53:18;;;;;;;1.73;1.40;;;34.20;37.60;;;;;;5082329;28;20036;-66
2022/06/30 12:56:07;;;;;;;1.40;1.30;;;34.20;37.20;;;;;;5093632;27;20027;-65
2022/06/30 12:58:43;;;;;;;2.28;1.13;;;34.30;34.30;;;;;;5098408;27;20043;-71